Latest Weather Observations for Point Perpendicular

IDN60801

Issued at 3:02 am EDT Friday 24 February 2017 (issued every 30 minutes, with the page automatically refreshed every 10 minutes)

About weather observations | Map of weather stations | Latest weather observations for NSW | Other Formats
Station Details ID: 068151 Name: POINT PERPENDICULAR AWS Lat: -35.09 Lon: 150.80 Height: 85.0 m
Data from the previous 72 hours. | See also: Recent months at Point Perpendicular
Date/Time
EDT
Temp
°C
App
Temp
°C
Dew
Point
°C
Rel
Hum
%
Delta-T
°C
Wind Press
QNH
hPa
Press
MSL
hPa
Rain since
9am
mm
Dir  Spd
km/h
Gust
km/h
Spd
kts
Gust
kts
24/03:00am 20.5 20.7 20.5 100 0.0 SW 20 28 11 15 1018.4 1018.1 0.0
24/02:30am 20.6 20.3 20.4 99 0.1 SW 22 37 12 20 1018.4 1018.1 0.0
24/02:00am 20.8 21.0 20.5 98 0.2 SSW 20 33 11 18 1018.6 1018.3 0.0
24/01:30am 21.0 21.4 20.7 98 0.2 S 19 30 10 16 1018.7 1018.4 0.0
24/01:00am 21.2 22.7 18.9 87 1.4 NNW 9 15 5 8 1019.0 1018.7 0.0
24/12:30am 20.6 21.4 18.2 86 1.5 N 11 22 6 12 1018.7 1018.4 0.0
24/12:00am 21.3 20.5 17.9 81 2.1 N 19 32 10 17 1018.5 1018.2 0.0
 
Date/Time
EDT
Temp
°C
App
Temp
°C
Dew
Point
°C
Rel
Hum
%
Delta-T
°C
Wind Press
QNH
hPa
Press
MSL
hPa
Rain since
9am
mm
Dir  Spd
km/h
Gust
km/h
Spd
kts
Gust
kts
23/11:30pm 22.4 20.2 17.8 75 2.9 NNE 26 39 14 21 1017.8 1017.5 0.0
23/11:12pm 22.5 19.5 18.7 79 2.4 NNE 32 50 17 27 1017.4 1017.1 0.0
23/11:00pm 22.5 18.7 18.9 80 2.3 NNE 37 50 20 27 1016.9 1016.6 0.0
23/10:39pm 22.5 19.6 19.3 82 2.0 NNE 33 52 18 28 1016.8 1016.5 0.0
23/10:30pm 22.5 18.9 19.3 82 2.0 NNE 37 54 20 29 1016.9 1016.6 0.0
23/10:00pm 22.9 20.2 19.7 82 2.1 NNE 33 54 18 29 1017.1 1016.8 0.0
23/09:40pm 23.0 20.3 19.6 81 2.2 NNE 33 52 18 28 1016.9 1016.6 0.0
23/09:30pm 23.0 19.9 19.6 81 2.2 NNE 35 52 19 28 1016.8 1016.5 0.0
23/09:14pm 23.0 20.0 19.8 82 2.1 N 35 56 19 30 1016.8 1016.5 0.0
23/09:00pm 22.9 20.4 19.7 82 2.1 N 32 48 17 26 1016.8 1016.5 0.0
23/08:48pm 23.0 20.4 20.0 83 1.9 NNE 33 54 18 29 1016.7 1016.4 0.0
23/08:30pm 23.0 20.4 20.0 83 1.9 NNE 33 48 18 26 1016.5 1016.2 0.0
23/08:01pm 22.8 20.8 20.7 88 1.4 N 32 50 17 27 1016.3 1016.0 0.0
23/08:00pm 22.8 20.8 20.7 88 1.4 N 32 43 17 23 1016.2 1015.9 0.0
23/07:49pm 23.0 21.1 20.9 88 1.4 NNE 32 50 17 27 1016.0 1015.7 0.0
23/07:30pm 23.1 21.6 21.0 88 1.4 NNE 30 41 16 22 1015.9 1015.6 0.0
23/07:00pm 23.8 22.5 21.3 86 1.6 NNE 30 41 16 22 1015.7 1015.4 0.0
23/06:30pm 24.7 22.7 21.2 81 2.3 NNE 33 46 18 25 1015.6 1015.3 0.0
23/06:00pm 24.8 22.3 20.9 79 2.6 NNE 35 52 19 28 1015.4 1015.1 0.0
23/05:44pm 25.1 23.0 21.0 78 2.7 NNE 33 52 18 28 1015.3 1015.0 0.0
23/05:30pm 25.3 22.5 21.0 77 2.8 NNE 37 50 20 27 1015.2 1014.9 0.0
23/05:00pm 25.4 22.5 20.9 76 3.0 NNE 37 52 20 28 1015.3 1015.0 0.0
23/04:30pm 25.6 22.8 21.1 76 3.0 NNE 37 52 20 28 1015.3 1015.0 0.0
23/04:05pm 26.1 24.2 20.9 73 3.4 NNE 32 50 17 27 1015.4 1015.1 0.0
23/04:00pm 26.0 23.4 20.6 72 3.5 NNE 35 50 19 27 1015.5 1015.2 0.0
23/03:33pm 25.9 23.8 20.5 72 3.5 NNE 32 50 17 27 1015.8 1015.5 0.0
23/03:30pm 26.0 23.6 20.3 71 3.7 NNE 33 50 18 27 1015.8 1015.5 0.0
23/03:09pm 26.4 24.2 20.7 71 3.8 NNE 33 52 18 28 1015.8 1015.5 0.0
23/03:00pm 26.0 22.7 20.1 70 3.8 NNE 37 52 20 28 1015.9 1015.6 0.0
23/02:30pm 25.9 22.7 20.2 71 3.7 NNE 37 50 20 27 1016.1 1015.8 0.0
23/02:00pm 26.1 22.3 19.7 68 4.2 NNE 39 52 21 28 1016.4 1016.1 0.0
23/01:30pm 26.4 23.4 19.8 67 4.3 NNE 35 46 19 25 1016.8 1016.5 0.0
23/01:00pm 26.6 23.7 19.2 64 4.8 NNE 33 46 18 25 1017.1 1016.8 0.0
23/12:30pm 26.4 23.1 19.3 65 4.6 NNE 35 46 19 25 1017.5 1017.2 0.0
23/12:00pm 25.9 23.7 18.8 65 4.5 NNE 28 43 15 23 1017.8 1017.5 0.0
23/11:30am 25.5 23.5 18.2 64 4.6 NNE 26 43 14 23 1018.0 1017.7 0.0
23/11:00am 24.8 21.3 18.0 66 4.3 NNE 33 43 18 23 1018.4 1018.1 0.0
23/10:30am 24.3 20.8 18.0 68 4.0 N 33 48 18 26 1018.7 1018.4 0.0
23/10:00am 23.7 20.2 17.9 70 3.6 NNE 33 48 18 26 1018.4 1018.1 0.0
23/09:41am 23.3 19.9 17.7 71 3.5 NNE 32 50 17 27 1018.4 1018.1 0.0
23/09:30am 23.1 19.5 17.6 71 3.4 NNE 33 46 18 25 1018.2 1017.9 0.0
23/09:00am 22.6 18.7 17.9 75 2.9 N 35 46 19 25 1018.2 1017.9 0.0
23/08:30am 21.8 18.2 17.6 77 2.6 N 33 48 18 26 1017.9 1017.6 0.0
23/08:00am 21.2 17.8 17.8 81 2.1 N 32 46 17 25 1017.9 1017.6 0.0
23/07:30am 20.6 17.2 17.8 84 1.7 N 32 41 17 22 1017.8 1017.5 0.0
23/07:00am 20.1 16.8 17.9 87 1.4 N 32 44 17 24 1017.4 1017.1 0.0
23/06:30am 20.2 17.1 17.6 85 1.6 NNE 30 43 16 23 1017.1 1016.8 0.0
23/06:00am 20.3 17.3 17.7 85 1.6 N 30 41 16 22 1016.8 1016.5 0.0
23/05:30am 20.3 17.0 17.9 86 1.5 NNE 32 46 17 25 1016.7 1016.4 0.0
23/05:09am 20.3 17.5 18.1 87 1.4 NNE 30 48 16 26 1016.6 1016.3 0.0
23/05:00am 20.4 17.1 18.0 86 1.5 NNE 32 44 17 24 1016.6 1016.3 0.0
23/04:30am 20.6 17.3 18.0 85 1.6 NNE 32 41 17 22 1016.8 1016.5 0.0
23/04:00am 20.7 17.4 17.9 84 1.7 NNE 32 46 17 25 1016.9 1016.6 0.0
23/03:30am 20.9 17.5 18.1 84 1.7 N 33 48 18 26 1017.2 1016.9 0.0
23/03:00am 21.0 17.7 18.0 83 1.9 N 32 50 17 27 1017.2 1016.9 0.0
23/02:31am 21.1 17.6 17.5 80 2.2 N 32 50 17 27 1017.4 1017.1 0.0
23/02:30am 21.2 17.6 17.6 80 2.2 N 33 50 18 27 1017.4 1017.1 0.0
23/02:00am 21.5 17.8 17.5 78 2.5 N 33 50 18 27 1017.4 1017.1 0.0
23/01:30am 21.6 17.5 17.4 77 2.6 N 35 48 19 26 1017.5 1017.2 0.0
23/01:00am 21.6 17.8 17.2 76 2.7 N 33 52 18 28 1018.0 1017.7 0.0
23/12:30am 21.8 17.8 17.6 77 2.6 N 35 54 19 29 1018.3 1018.0 0.0
23/12:18am 21.7 18.3 17.7 78 2.5 N 32 50 17 27 1018.4 1018.1 0.0
23/12:00am 21.9 18.6 17.9 78 2.5 N 32 46 17 25 1018.4 1018.1 0.0
 
Date/Time
EDT
Temp
°C
App
Temp
°C
Dew
Point
°C
Rel
Hum
%
Delta-T
°C
Wind Press
QNH
hPa
Press
MSL
hPa
Rain since
9am
mm
Dir  Spd
km/h
Gust
km/h
Spd
kts
Gust
kts
22/11:30pm 22.0 18.9 18.4 80 2.3 N 32 44 17 24 1018.5 1018.2 0.0
22/11:02pm 22.1 19.0 18.5 80 2.3 N 32 50 17 27 1018.3 1018.0 0.0
22/11:00pm 22.1 19.0 18.5 80 2.3 N 32 46 17 25 1018.3 1018.0 0.0
22/10:30pm 22.3 19.4 18.9 81 2.2 N 32 48 17 26 1018.2 1017.9 0.0
22/10:00pm 22.5 19.4 18.9 80 2.3 N 33 48 18 26 1018.0 1017.7 0.0
22/09:31pm 22.5 19.4 18.9 80 2.3 N 33 52 18 28 1017.8 1017.5 0.0
22/09:30pm 22.5 19.1 18.9 80 2.3 N 35 52 19 28 1017.8 1017.5 0.0
22/09:22pm 22.4 19.4 19.0 81 2.2 N 33 52 18 28 1017.8 1017.5 0.0
22/09:00pm 22.2 19.9 19.4 84 1.8 N 30 41 16 22 1017.6 1017.3 0.0
22/08:30pm 22.8 20.2 18.6 77 2.7 NNE 30 43 16 23 1017.1 1016.8 0.0
22/08:12pm 23.2 20.0 18.7 76 2.9 NNE 33 54 18 29 1016.9 1016.6 0.0
22/08:00pm 23.2 20.0 18.5 75 3.0 NNE 33 46 18 25 1016.7 1016.4 0.0
22/07:30pm 23.3 20.7 18.6 75 3.0 NNE 30 43 16 23 1016.6 1016.3 0.0
22/07:00pm 23.9 20.8 18.3 71 3.5 NNE 32 48 17 26 1016.4 1016.1 0.0
22/06:30pm 24.4 21.4 18.6 70 3.7 NNE 32 48 17 26 1016.3 1016.0 0.0
22/06:00pm 24.9 21.6 18.4 67 4.1 NNE 33 46 18 25 1016.4 1016.1 0.0
22/05:30pm 25.3 22.2 18.5 66 4.3 NNE 32 46 17 25 1016.5 1016.2 0.0
22/05:16pm 25.6 22.9 18.5 65 4.5 NNE 30 48 16 26 1016.5 1016.2 0.0
22/05:00pm 26.0 23.3 18.4 63 4.8 NNE 30 43 16 23 1016.7 1016.4 0.0
22/04:33pm 26.0 23.1 18.9 65 4.6 NNE 32 54 17 29 1017.0 1016.7 0.0
22/04:30pm 25.9 22.9 18.6 64 4.7 NNE 32 44 17 24 1017.0 1016.7 0.0
22/04:00pm 26.2 23.3 18.9 64 4.7 NNE 32 46 17 25 1017.4 1017.1 0.0
22/03:35pm 26.2 22.7 17.8 60 5.3 NNE 33 52 18 28 1017.6 1017.3 0.0
22/03:30pm 26.2 22.7 17.8 60 5.3 NNE 33 46 18 25 1017.7 1017.4 0.0
22/03:00pm 26.3 22.8 17.4 58 5.6 NNE 32 44 17 24 1017.9 1017.6 0.0
22/02:30pm 26.3 22.5 18.2 61 5.1 NNE 35 48 19 26 1018.3 1018.0 0.0
22/02:00pm 26.3 22.5 18.2 61 5.1 NNE 35 50 19 27 1018.6 1018.3 0.0
22/01:30pm 26.3 23.1 18.2 61 5.1 NNE 32 44 17 24 1018.8 1018.5 0.0
22/01:00pm 25.9 22.8 17.5 59 5.3 NNE 30 44 16 24 1019.2 1018.9 0.0
22/12:30pm 26.3 23.2 17.4 58 5.6 NNE 30 44 16 24 1019.4 1019.1 0.0
22/12:00pm 26.8 24.0 17.3 56 6.0 NNE 28 43 15 23 1020.0 1019.7 0.0
22/11:30am 26.2 22.7 16.4 54 6.1 N 30 44 16 24 1020.5 1020.2 0.0
22/11:00am 26.0 22.9 16.5 55 5.9 NNE 28 43 15 23 1020.8 1020.5 0.0
22/10:30am 25.0 22.6 16.4 59 5.3 N 24 37 13 20 1021.1 1020.8 0.0
22/10:00am 25.1 23.2 17.6 63 4.7 N 24 35 13 19 1021.2 1020.9 0.0
22/09:30am 23.9 22.7 17.4 67 4.0 N 20 28 11 15 1021.3 1021.0 0.0
22/09:00am 22.0 22.7 18.0 78 2.5 NNW 11 19 6 10 1021.1 1020.8 0.0
22/08:30am 21.3 22.2 18.3 83 1.9 NNW 11 19 6 10 1021.0 1020.7 0.0
22/08:00am 20.6 21.9 18.5 88 1.3 NNW 9 13 5 7 1020.7 1020.4 0.0
22/07:30am 19.7 21.2 19.0 96 0.4 NNW 9 11 5 6 1020.5 1020.2 0.0
22/07:00am 18.3 18.6 15.9 86 1.4 N 9 13 5 7 1020.2 1019.9 0.0
22/06:30am 18.5 19.7 15.9 85 1.5 N 4 7 2 4 1020.0 1019.7 0.0
22/06:00am 18.4 20.0 16.9 91 0.9 NNW 4 4 2 2 1019.7 1019.4 0.0
22/05:30am 17.9 20.0 17.1 95 0.5 NNW 2 2 1 1 1019.5 1019.2 0.0
22/05:00am 18.2 20.5 17.6 96 0.4 NNW 2 4 1 2 1019.5 1019.2 0.0
22/04:30am 19.1 21.8 18.6 97 0.3 NW 2 4 1 2 1019.5 1019.2 0.0
22/04:00am 19.3 21.3 18.8 97 0.3 NW 6 6 3 3 1019.6 1019.3 0.0
22/03:30am 19.6 20.8 18.3 92 0.8 NNW 9 9 5 5 1019.8 1019.5 0.0
22/03:00am 20.1 21.7 18.2 89 1.2 N 7 9 4 5 1019.9 1019.6 0.0
22/02:30am 20.5 21.3 17.3 82 2.0 N 9 11 5 6 1020.0 1019.7 0.0
22/02:00am 21.2 22.0 17.2 78 2.5 N 9 11 5 6 1020.3 1020.0 0.0
22/01:30am 21.5 22.0 17.5 78 2.5 N 11 17 6 9 1020.5 1020.2 0.0
22/01:00am 21.9 21.4 17.7 77 2.6 NNE 17 24 9 13 1020.8 1020.5 0.0
22/12:30am 21.9 21.5 17.1 74 3.0 NE 15 22 8 12 1021.1 1020.8 0.0
22/12:00am 21.9 21.7 16.6 72 3.2 NNE 13 20 7 11 1021.3 1021.0 0.0
 
Date/Time
EDT
Temp
°C
App
Temp
°C
Dew
Point
°C
Rel
Hum
%
Delta-T
°C
Wind Press
QNH
hPa
Press
MSL
hPa
Rain since
9am
mm
Dir  Spd
km/h
Gust
km/h
Spd
kts
Gust
kts
21/11:30pm 21.8 21.6 16.7 73 3.1 NNE 13 20 7 11 1021.3 1021.0 0.0
21/11:00pm 21.9 21.6 16.4 71 3.3 NNE 13 20 7 11 1021.5 1021.2 0.0
21/10:30pm 21.8 21.4 16.3 71 3.3 NNE 13 20 7 11 1021.6 1021.3 0.0
21/10:00pm 22.0 22.1 16.5 71 3.3 NNE 11 15 6 8 1021.7 1021.4 0.0
21/09:30pm 21.8 22.6 16.3 71 3.3 NE 7 11 4 6 1021.6 1021.3 0.0
21/09:00pm 21.2 21.2 14.1 64 4.1 NE 7 9 4 5 1021.3 1021.0 0.0
21/08:30pm 21.1 20.6 13.8 63 4.2 NNE 9 13 5 7 1020.8 1020.5 0.0
21/08:00pm 21.5 21.0 13.9 62 4.4 NE 9 11 5 6 1020.6 1020.3 0.0
21/07:30pm 21.9 21.9 13.5 59 4.9 NE 6 9 3 5 1020.3 1020.0 0.0
21/07:00pm 22.9 22.3 13.4 55 5.5 NNE 9 15 5 8 1020.0 1019.7 0.0
21/06:30pm 23.2 22.1 14.2 57 5.3 NE 13 19 7 10 1019.5 1019.2 0.0
21/06:00pm 22.7 23.7 16.9 70 3.6 E 7 11 4 6 1019.4 1019.1 0.0
21/05:30pm 21.9 20.8 17.3 75 2.8 SSE 19 28 10 15 1019.1 1018.8 0.0
21/05:00pm 21.7 20.3 16.9 74 2.9 SE 20 32 11 17 1018.9 1018.6 0.0
21/04:30pm 22.0 20.7 16.9 73 3.1 SE 19 32 10 17 1018.9 1018.6 0.0
21/04:00pm 21.9 20.6 16.8 73 3.1 SE 19 30 10 16 1018.9 1018.6 0.0
21/03:30pm 22.2 20.9 16.9 72 3.3 SE 19 30 10 16 1018.9 1018.6 0.0
21/03:00pm 22.1 20.5 16.4 70 3.5 SE 20 33 11 18 1019.2 1018.9 0.0
21/02:30pm 22.5 19.8 16.5 69 3.7 SSE 26 35 14 19 1019.4 1019.1 0.0
21/02:00pm 22.2 19.5 16.7 71 3.4 S 26 37 14 20 1019.8 1019.5 0.0
21/01:30pm 21.5 19.1 16.5 73 3.0 S 24 37 13 20 1019.6 1019.3 0.0
21/01:00pm 21.6 19.5 16.3 72 3.2 SSW 22 33 12 18 1019.9 1019.6 0.0
21/12:30pm 21.5 19.6 15.8 70 3.4 SSW 20 30 11 16 1020.2 1019.9 0.0
21/12:00pm 21.3 17.3 14.2 64 4.1 SSW 28 35 15 19 1020.4 1020.1 0.0
21/11:30am 21.5 18.5 14.9 66 3.9 SSW 24 33 13 18 1020.6 1020.3 0.0
21/11:00am 20.9 18.3 14.8 68 3.6 SSW 22 32 12 17 1020.8 1020.5 0.0
21/10:30am 20.8 18.4 14.5 67 3.7 SSW 20 30 11 16 1020.9 1020.6 0.0
21/10:00am 20.7 17.4 14.1 66 3.8 SSW 24 33 13 18 1020.6 1020.3 0.0
21/09:30am 20.5 17.3 14.2 67 3.7 SSW 24 35 13 19 1020.2 1019.9 0.0
21/09:00am 20.3 18.0 14.2 68 3.5 SSW 19 30 10 16 1019.9 1019.6 0.0
21/08:30am 20.1 17.8 14.2 69 3.4 SSW 19 30 10 16 1019.3 1019.0 0.0
21/08:00am 19.2 17.8 15.5 79 2.2 SW 17 26 9 14 1018.9 1018.6 0.0
21/07:30am 19.4 18.4 15.5 78 2.3 SW 15 22 8 12 1018.6 1018.3 0.0
21/07:00am 18.8 18.3 14.9 78 2.3 SW 11 19 6 10 1018.3 1018.0 0.0
21/06:30am 18.6 18.0 14.5 77 2.4 SW 11 19 6 10 1017.9 1017.6 0.0
21/06:00am 18.5 17.8 14.2 76 2.5 WSW 11 17 6 9 1017.6 1017.3 0.0
21/05:30am 18.5 17.4 14.2 76 2.5 WSW 13 19 7 10 1017.4 1017.1 0.0
21/05:00am 18.5 17.4 14.4 77 2.4 WSW 13 17 7 9 1017.3 1017.0 0.0
21/04:30am 18.6 18.2 14.1 75 2.6 WSW 9 13 5 7 1017.0 1016.7 0.0
21/04:00am 19.0 18.4 13.4 70 3.2 WSW 9 19 5 10 1017.0 1016.7 0.0
21/03:30am 20.5 19.8 13.2 63 4.2 SSE 9 17 5 9 1016.8 1016.5 0.0

Other Formats:

Comma delimited format used in spreadsheet applications
http://www.bom.gov.au/fwo/IDN60801/IDN60801.95940.axf

JavaScript Object Notation format (JSON) in row-major order
http://www.bom.gov.au/fwo/IDN60801/IDN60801.95940.json